Antwerp, Belgium

6:24 AM CEST on September 02, 2014 (GMT +0200)
Antwerpen | Change Station
CLOSE
Current Station
Personal Weather Station
Location: Antwerpen, ANTWERPEN
Elevation: 10 ft
Nearby Weather Stations

Elev 10 ft 51.23 °N, 4.45 °E | Updated 3 seconds ago

Overcast
Overcast
57.3 °F
Feels Like 57.3 °F
N
7.0
Wind Variable Wind from WNW
Gusts 7.0 mph

Today
High -- | Low -- °F
--% Chance of Precip.
Yesterday
High -- | Low -- °F
Precip. -- in
6:56 AM 8:26 PM
Waxing Crescent, 47% visible
Pressure 30.12 in
Visibility 4.3 miles
Clouds Mostly Cloudy 3700 ft
Overcast 4100 ft
Dew Point 54 °F
Humidity 97%
Rainfall 0.00 in
Snow Depth Not available.
UV 0.0 out of 12
Pollen Not available.
Air Quality Not available.
Flu Activity Not available.
SPECI EHWO 020408Z AUTO 00000KT 7000 BR BKN037 OVC041 13/12 Q1020 WHT

More Conditions Fewer Conditions

Pressure 30.12 in
Visibility 4.3 miles
Clouds Mostly Cloudy 3700 ft
Overcast 4100 ft
Dew Point 54 °F
Humidity 97%
Rainfall 0.00 in
Snow Depth Not available.
UV 0.0 out of 12
Pollen Not available.
Air Quality Not available.
Flu Activity Not available.
SPECI EHWO 020408Z AUTO 00000KT 7000 BR BKN037 OVC041 13/12 Q1020 WHT

More Conditions Fewer Conditions

10-Day Weather Forecast

Almanac

Astronomy

Sep. 02, 2014 Rise Set
Actual Time 6:56 AM CEST 8:26 PM CEST
Civil Twilight 6:21 AM CEST 9:00 PM CEST
Nautical Twilight 5:39 AM CEST 9:42 PM CEST
Astronomical Twilight 4:52 AM CEST 10:28 PM CEST
Moon 3:13 PM CEST No Moon Set
Length of Visible Light 14h 38m
Length of Day
13h 29m
Tomorrow will be 3m 48s shorter.
Waxing Crescent, 47% of the Moon is Illuminated
Today
Waxing Crescent
Sep 2
First Quarter
Sep 8
Full
Sep 15
Last Quarter
Sep 24
New

Yesterday's Extremes

Country Highs Country Lows

Community

WunderPhotos

Upload Photos

1,749,560 photos uploaded!

WunderBlogs® & News

Nearby

Snow Depth

Not available.

Earthquake Activity

City Distance Mag. Time & Date
No recent earthquake activity has been reported nearby.
Minimum magnitude displayed is 2.5.

Coastal Water Temperatures

Place Temperature
No Stations Reporting

Nearby Weather Stations